Time;durP1;ratioP1;P1;durP2;ratioP2;P2;SDS_P1;SDS_P2;PMS_P1;PMS_P2;Temp;Humidity;BMP_temperature;BMP_pressure;BME280_temperature;BME280_humidity;BME280_pressure;Samples;Min_cycle;Max_cycle;Signal;HPM_P1;HPM_P2
2024/01/10 08:19:39;;;;;;;20.30;6.27;;;;;;;-5.51;68.63;102763.47;5312514;24;20039;-77
2024/01/10 08:22:04;;;;;;;19.87;6.00;;;;;;;-5.48;68.70;102764.41;4685993;24;20049;-78
2024/01/10 08:24:30;;;;;;;17.80;5.83;;;;;;;-5.47;68.56;102771.44;4857374;29;20060;-80
2024/01/10 08:26:55;;;;;;;20.00;6.20;;;;;;;-5.42;68.87;102771.53;4855244;29;20036;-81
2024/01/10 08:29:21;;;;;;;20.90;6.63;;;;;;;-5.42;68.33;102770.69;4854102;29;20488;-79
2024/01/10 08:31:47;;;;;;;18.65;5.47;;;;;;;-5.39;68.36;102769.00;4855840;29;20032;-80
2024/01/10 08:34:13;;;;;;;18.75;6.07;;;;;;;-5.35;68.69;102769.97;4857722;29;20036;-79
2024/01/10 08:36:39;;;;;;;20.58;6.20;;;;;;;-5.34;67.69;102775.25;4858003;29;20026;-79
2024/01/10 08:39:04;;;;;;;19.83;5.80;;;;;;;-5.27;68.47;102779.78;4856967;29;20021;-78
2024/01/10 08:41:30;;;;;;;19.42;5.80;;;;;;;-5.22;68.61;102779.00;4857558;29;20509;-78
2024/01/10 08:43:55;;;;;;;20.30;6.80;;;;;;;-5.22;67.89;102768.53;4857394;29;20039;-78
2024/01/10 08:46:21;;;;;;;18.03;6.83;;;;;;;-5.19;68.11;102764.22;4853504;29;20078;-75
2024/01/10 08:48:47;;;;;;;21.50;6.83;;;;;;;-5.15;67.54;102770.44;4855856;29;20108;-75
2024/01/10 08:51:15;;;;;;;21.40;7.23;;;;;;;-5.13;67.49;102768.72;4852102;29;20186;-76
2024/01/10 08:53:41;;;;;;;19.02;6.90;;;;;;;-5.11;67.64;102767.00;4854475;29;20077;-75
2024/01/10 08:56:06;;;;;;;26.00;7.32;;;;;;;-5.07;67.64;102778.47;4852270;29;20592;-78
2024/01/10 08:58:31;;;;;;;18.98;5.88;;;;;;;-5.04;67.40;102773.28;4853597;29;20034;-78
2024/01/10 09:00:57;;;;;;;23.27;7.43;;;;;;;-4.99;67.82;102777.78;4854252;29;20022;-78
2024/01/10 09:03:22;;;;;;;20.20;6.70;;;;;;;-4.93;67.47;102775.31;4855207;29;20183;-79
2024/01/10 09:05:47;;;;;;;20.33;6.60;;;;;;;-4.87;67.39;102771.94;4856715;29;21467;-77
2024/01/10 09:08:13;;;;;;;23.25;7.65;;;;;;;-4.83;67.41;102773.78;4854079;29;20028;-77
2024/01/10 09:10:38;;;;;;;22.25;6.97;;;;;;;-4.80;66.54;102775.56;4853399;29;20034;-78
2024/01/10 09:13:03;;;;;;;21.57;6.83;;;;;;;-4.78;66.35;102768.63;4854609;29;20066;-77
2024/01/10 09:15:29;;;;;;;19.50;6.72;;;;;;;-4.78;65.96;102772.13;4853346;29;20398;-77
2024/01/10 09:17:54;;;;;;;23.15;6.47;;;;;;;-4.74;65.61;102773.97;4850031;29;20025;-77
2024/01/10 09:20:20;;;;;;;19.67;6.50;;;;;;;-4.71;65.61;102770.53;4845748;29;20050;-77
2024/01/10 09:22:45;;;;;;;22.08;7.43;;;;;;;-4.67;65.66;102785.47;4836402;29;20102;-76
2024/01/10 09:25:12;;;;;;;20.58;6.60;;;;;;;-4.59;65.12;102775.13;4836879;29;20508;-77
2024/01/10 09:27:40;;;;;;;23.13;6.82;;;;;;;-4.56;64.66;102778.69;4852214;29;22572;-77
2024/01/10 09:30:08;;;;;;;19.52;6.75;;;;;;;-4.51;65.09;102783.16;4841256;29;20110;-75
2024/01/10 09:32:33;;;;;;;19.20;7.05;;;;;;;-4.47;64.50;102785.00;4846634;29;20054;-74
2024/01/10 09:34:59;;;;;;;23.45;7.53;;;;;;;-4.46;64.28;102786.78;4843705;29;20116;-76
2024/01/10 09:37:24;;;;;;;22.98;6.85;;;;;;;-4.45;64.28;102789.44;4859413;29;20109;-72
2024/01/10 09:39:49;;;;;;;20.33;6.95;;;;;;;-4.39;64.38;102788.69;4840809;29;20030;-73
2024/01/10 09:42:15;;;;;;;21.35;7.18;;;;;;;-4.33;64.06;102794.03;4843617;29;20045;-72
2024/01/10 09:44:41;;;;;;;20.80;7.38;;;;;;;-4.29;63.42;102784.47;4841344;29;20034;-70
2024/01/10 09:47:07;;;;;;;21.23;7.47;;;;;;;-4.25;63.87;102784.56;4843228;29;20037;-74
2024/01/10 09:49:33;;;;;;;21.40;7.95;;;;;;;-4.20;63.35;102789.94;4856366;29;20021;-74
2024/01/10 09:52:03;;;;;;;20.88;7.07;;;;;;;-4.15;63.28;102790.88;4840560;29;20060;-74
2024/01/10 09:54:30;;;;;;;24.10;7.60;;;;;;;-4.09;62.97;102798.88;4837632;29;20402;-73
2024/01/10 09:56:56;;;;;;;23.95;8.63;;;;;;;-4.07;62.38;102794.53;4840171;29;20040;-74
2024/01/10 09:59:21;;;;;;;24.10;7.40;;;;;;;-4.01;63.23;102800.75;4857754;29;20037;-73
2024/01/10 10:01:47;;;;;;;22.65;7.80;;;;;;;-3.96;62.50;102792.09;4854269;29;20056;-73
2024/01/10 10:04:12;;;;;;;21.08;7.35;;;;;;;-3.92;62.20;102799.19;4841496;29;20026;-73
2024/01/10 10:06:38;;;;;;;24.55;7.32;;;;;;;-3.88;62.36;102797.50;4842734;29;20037;-73
2024/01/10 10:09:04;;;;;;;22.05;7.18;;;;;;;-3.83;61.86;102798.47;4857873;29;20037;-73
2024/01/10 10:11:29;;;;;;;23.20;7.90;;;;;;;-3.79;61.89;102792.44;4841523;29;20022;-73
2024/01/10 10:13:55;;;;;;;21.35;7.68;;;;;;;-3.76;61.10;102791.59;4859888;29;20033;-73
2024/01/10 10:16:27;;;;;;;22.63;7.40;;;;;;;-3.71;61.19;102795.19;4841251;29;20034;-73
2024/01/10 10:18:57;;;;;;;22.92;7.45;;;;;;;-3.68;61.41;102795.22;4854767;29;20029;-73
2024/01/10 10:21:25;;;;;;;22.88;7.75;;;;;;;-3.65;61.06;102790.03;4853492;29;20058;-73
2024/01/10 10:24:01;;;;;;;23.52;8.68;;;;;;;-3.59;61.75;102786.63;4843548;29;20030;-73
2024/01/10 10:26:28;;;;;;;21.80;7.43;;;;;;;-3.53;60.91;102797.22;4854172;29;20022;-73
2024/01/10 10:28:54;;;;;;;24.73;8.02;;;;;;;-3.52;60.02;102792.00;4842146;29;20052;-73
2024/01/10 10:31:20;;;;;;;21.35;7.80;;;;;;;-3.48;60.69;102777.16;4843608;29;20044;-73
2024/01/10 10:33:50;;;;;;;23.75;8.80;;;;;;;-3.42;60.33;102781.66;4843258;29;20044;-73
2024/01/10 10:36:16;;;;;;;20.73;6.88;;;;;;;-3.38;59.74;102780.84;4843559;29;20034;-73
2024/01/10 10:38:41;;;;;;;25.10;9.52;;;;;;;-3.34;59.66;102780.00;4845665;29;20030;-73
2024/01/10 10:41:10;;;;;;;23.30;8.23;;;;;;;-3.33;59.39;102777.41;4842606;29;20042;-73
2024/01/10 10:43:37;;;;;;;23.75;8.85;;;;;;;-3.31;58.88;102766.03;4846317;29;20039;-72
2024/01/10 10:46:04;;;;;;;22.23;8.10;;;;;;;-3.27;59.18;102766.09;4844387;29;20034;-74
2024/01/10 10:48:34;;;;;;;21.05;7.72;;;;;;;-3.23;58.58;102772.31;4853406;29;20034;-71
2024/01/10 10:51:18;;;;;;;22.23;7.88;;;;;;;-3.19;58.95;102775.00;4859571;29;20029;-72
2024/01/10 10:53:45;;;;;;;22.73;7.95;;;;;;;-3.17;57.63;102768.00;4866464;29;20038;-72
2024/01/10 10:56:11;;;;;;;27.15;8.75;;;;;;;-3.11;58.49;102768.97;4841977;29;20037;-72
2024/01/10 10:58:41;;;;;;;21.75;7.88;;;;;;;-3.04;58.55;102776.09;4846645;29;20125;-72
2024/01/10 11:01:08;;;;;;;22.42;7.78;;;;;;;-2.98;58.29;102765.66;4849505;29;20034;-76
2024/01/10 11:03:36;;;;;;;23.10;7.97;;;;;;;-2.93;58.36;102771.84;4851155;29;20025;-76
2024/01/10 11:06:03;;;;;;;24.15;8.65;;;;;;;-2.89;58.50;102770.16;4845993;29;20029;-76
2024/01/10 11:08:33;;;;;;;23.52;8.13;;;;;;;-2.83;57.95;102773.72;4836908;29;20559;-76
2024/01/10 11:11:00;;;;;;;20.70;7.28;;;;;;;-2.78;57.98;102772.91;4836890;29;20056;-74
2024/01/10 11:13:28;;;;;;;23.85;8.07;;;;;;;-2.75;57.34;102770.31;4848828;29;20040;-76
2024/01/10 11:16:29;;;;;;;21.80;7.20;;;;;;;-2.71;57.76;102765.13;4838318;29;20030;-76
2024/01/10 11:19:00;;;;;;;25.95;9.05;;;;;;;-2.65;57.92;102764.31;4816580;29;20053;-76
2024/01/10 11:21:47;;;;;;;21.95;8.80;;;;;;;-2.63;57.61;102752.06;4838782;29;20045;-76
2024/01/10 11:24:13;;;;;;;24.38;10.05;;;;;;;-2.62;57.21;102745.94;4834955;29;20029;-75
2024/01/10 11:26:38;;;;;;;26.52;8.90;;;;;;;-2.60;57.17;102752.09;4841960;29;20030;-76
2024/01/10 11:29:05;;;;;;;26.55;10.27;;;;;;;-2.58;56.91;102749.47;4836666;29;20030;-76
2024/01/10 11:31:32;;;;;;;23.73;8.23;;;;;;;-2.57;56.39;102741.59;4840219;29;20509;-77
2024/01/10 11:33:59;;;;;;;22.52;8.57;;;;;;;-2.54;56.65;102746.91;4843564;29;20125;-74
2024/01/10 11:36:26;;;;;;;26.27;10.32;;;;;;;-2.52;56.96;102739.03;4846562;29;20034;-75
2024/01/10 11:38:51;;;;;;;25.88;9.50;;;;;;;-2.50;56.79;102727.66;4843681;29;20045;-75
2024/01/10 11:41:24;;;;;;;22.70;8.88;;;;;;;-2.45;56.51;102738.22;4848824;29;20524;-75
2024/01/10 11:44:22;;;;;;;23.90;8.45;;;;;;;-2.43;56.81;102731.25;4847795;29;20030;-74
2024/01/10 11:46:52;;;;;;;26.92;9.57;;;;;;;-2.40;55.80;102731.28;4852254;29;20029;-74
2024/01/10 11:49:18;;;;;;;;;;;;;;;-2.34;56.93;102722.56;4855259;29;20030;-74
2024/01/10 11:51:49;;;;;;;31.10;10.85;;;;;;;-2.36;55.97;102719.88;4839554;29;19925;-79
2024/01/10 11:54:50;;;;;;;24.80;9.15;;;;;;;-2.29;56.69;102723.47;4838570;29;20032;-75
2024/01/10 11:57:22;;;;;;;24.10;9.25;;;;;;;-2.27;55.27;102721.72;4765388;30;20047;-76
2024/01/10 11:59:50;;;;;;;23.67;9.90;;;;;;;-2.21;56.02;102723.56;4824495;29;20050;-75
2024/01/10 12:02:17;;;;;;;28.05;9.98;;;;;;;-2.19;55.25;102721.84;4839979;29;20049;-76
2024/01/10 12:04:42;;;;;;;23.23;9.00;;;;;;;-2.17;55.47;102726.22;4853998;29;20086;-76
2024/01/10 12:07:08;;;;;;;24.83;10.00;;;;;;;-2.14;55.63;102718.38;4840964;29;20431;-75
2024/01/10 12:09:35;;;;;;;26.70;9.75;;;;;;;-2.09;55.25;102715.78;4846446;29;20086;-71
2024/01/10 12:12:00;;;;;;;22.67;8.35;;;;;;;-2.06;55.10;102712.31;4849731;29;20034;-73
2024/01/10 12:14:26;;;;;;;25.20;9.00;;;;;;;-2.03;54.60;102717.59;4851048;29;20026;-72
2024/01/10 12:16:52;;;;;;;27.83;9.63;;;;;;;-2.02;54.18;102714.97;4849520;29;20182;-71
2024/01/10 12:19:18;;;;;;;25.83;9.48;;;;;;;-2.01;54.25;102705.31;4851137;29;20059;-72
2024/01/10 12:21:43;;;;;;;26.63;9.80;;;;;;;-1.98;54.26;102711.50;4869570;29;20042;-71
2024/01/10 12:24:09;;;;;;;25.75;10.02;;;;;;;-1.96;53.77;102704.47;4864239;29;20034;-73
2024/01/10 12:26:35;;;;;;;26.50;10.65;;;;;;;-1.92;54.62;102702.75;4856441;29;20053;-69
2024/01/10 12:29:04;;;;;;;25.40;9.50;;;;;;;-1.87;53.95;102700.19;4849971;29;20112;-69
2024/01/10 12:31:30;;;;;;;24.17;8.82;;;;;;;-1.85;53.92;102704.56;4845388;29;20075;-69
2024/01/10 12:33:56;;;;;;;23.42;9.68;;;;;;;-1.81;53.98;102702.84;4849261;29;20574;-69
2024/01/10 12:36:21;;;;;;;24.63;8.85;;;;;;;-1.78;54.29;102702.88;4840237;29;20074;-74
2024/01/10 12:38:47;;;;;;;24.95;9.70;;;;;;;-1.74;54.33;102695.84;4843957;29;20113;-75
2024/01/10 12:41:15;;;;;;;23.77;9.38;;;;;;;-1.72;53.86;102700.28;4843969;29;20034;-76
2024/01/10 12:43:41;;;;;;;24.35;10.18;;;;;;;-1.67;53.44;102702.94;4840193;29;20034;-75
2024/01/10 12:46:11;;;;;;;25.95;8.52;;;;;;;-1.63;53.89;102702.09;4838069;29;20452;-76
2024/01/10 12:48:43;;;;;;;24.25;9.93;;;;;;;-1.60;53.40;102696.84;4838181;29;20053;-76
2024/01/10 12:51:12;;;;;;;21.05;8.98;;;;;;;-1.57;53.93;102699.50;4841383;29;20627;-75
2024/01/10 12:53:41;;;;;;;24.17;8.95;;;;;;;-1.53;53.87;102697.78;4854573;29;20038;-74
2024/01/10 12:56:07;;;;;;;26.60;10.00;;;;;;;-1.51;53.21;102699.53;4843580;29;20120;-75
2024/01/10 12:58:36;;;;;;;24.13;9.48;;;;;;;-1.50;53.27;102698.69;4839484;29;20037;-75
2024/01/10 13:01:03;;;;;;;24.48;10.30;;;;;;;-1.46;53.39;102697.84;4839415;29;20033;-75
2024/01/10 13:03:28;;;;;;;24.27;8.98;;;;;;;-1.44;53.24;102701.34;4841213;29;20456;-75
2024/01/10 13:05:54;;;;;;;27.10;9.90;;;;;;;-1.39;52.73;102705.78;4841995;29;20087;-75
2024/01/10 13:08:19;;;;;;;23.70;9.93;;;;;;;-1.39;52.58;102700.50;4840529;29;20476;-75
2024/01/10 13:10:45;;;;;;;23.45;9.50;;;;;;;-1.36;52.30;102705.78;4850628;29;20068;-74
2024/01/10 13:13:12;;;;;;;21.30;8.43;;;;;;;-1.36;52.36;102701.41;4879286;29;20037;-74
2024/01/10 13:15:37;;;;;;;25.80;9.43;;;;;;;-1.35;52.58;102703.16;4880427;29;20018;-74
2024/01/10 13:18:03;;;;;;;24.38;9.75;;;;;;;-1.32;52.74;102699.66;4878708;29;20018;-74
2024/01/10 13:20:28;;;;;;;25.70;9.40;;;;;;;-1.30;53.05;102690.91;4878734;29;20059;-74
2024/01/10 13:22:53;;;;;;;24.90;9.98;;;;;;;-1.26;52.89;102697.97;4866220;29;20041;-74
2024/01/10 13:25:22;;;;;;;24.90;10.23;;;;;;;-1.21;53.56;102690.06;4861431;29;20038;-74
2024/01/10 13:27:50;;;;;;;25.30;9.80;;;;;;;-1.17;53.22;102690.94;4858198;29;20034;-75
2024/01/10 13:30:16;;;;;;;25.95;10.82;;;;;;;-1.15;52.51;102690.09;4853227;29;20033;-72
2024/01/10 13:32:41;;;;;;;26.90;11.10;;;;;;;-1.14;52.57;102689.22;4856323;29;20541;-73
2024/01/10 13:35:07;;;;;;;26.40;10.07;;;;;;;-1.11;52.44;102691.00;4844256;29;20042;-75
2024/01/10 13:37:32;;;;;;;25.25;9.93;;;;;;;-1.13;52.29;102688.38;4840198;29;20064;-75
2024/01/10 13:39:58;;;;;;;24.55;10.52;;;;;;;-1.11;52.20;102693.66;4838214;29;20030;-75
2024/01/10 13:42:23;;;;;;;29.35;11.52;;;;;;;-1.11;52.70;102691.88;4840182;29;20776;-75
2024/01/10 13:44:49;;;;;;;23.30;10.10;;;;;;;-1.09;52.57;102698.03;4836859;29;20170;-75
2024/01/10 13:47:15;;;;;;;24.58;9.10;;;;;;;-1.07;52.27;102693.66;4838665;29;20202;-75
2024/01/10 13:49:41;;;;;;;24.85;9.63;;;;;;;-1.06;52.37;102700.69;4839341;29;20030;-74
2024/01/10 13:52:06;;;;;;;24.95;10.57;;;;;;;-1.03;52.90;102688.41;4837887;29;20030;-73
2024/01/10 13:54:32;;;;;;;26.23;10.48;;;;;;;-1.01;52.76;102697.19;4838872;29;20398;-73
2024/01/10 13:56:57;;;;;;;25.55;9.90;;;;;;;-1.01;52.19;102697.19;4840542;29;20029;-74
2024/01/10 13:59:22;;;;;;;26.33;10.65;;;;;;;-1.03;52.14;102706.88;4839656;29;20034;-76
2024/01/10 14:01:48;;;;;;;25.83;11.52;;;;;;;-1.03;52.34;102704.22;4845092;29;20041;-75
2024/01/10 14:04:13;;;;;;;24.60;10.02;;;;;;;-1.03;52.23;102696.31;4843540;29;20041;-78
2024/01/10 14:06:38;;;;;;;24.45;8.70;;;;;;;-1.04;52.67;102705.09;4835791;29;20022;-78
2024/01/10 14:09:04;;;;;;;26.90;10.40;;;;;;;-1.03;52.43;102701.59;4845519;29;20033;-77
2024/01/10 14:11:29;;;;;;;25.23;10.10;;;;;;;-1.02;52.48;102700.72;4844040;29;20126;-78
2024/01/10 14:13:54;;;;;;;26.13;9.98;;;;;;;-1.03;51.81;102702.47;4840172;29;23402;-77
2024/01/10 14:16:19;;;;;;;24.90;9.30;;;;;;;-1.02;51.80;102716.56;4842084;29;20038;-77
2024/01/10 14:18:47;;;;;;;26.10;10.07;;;;;;;-1.01;52.44;102718.31;4837518;29;20105;-77
2024/01/10 14:21:12;;;;;;;27.17;10.77;;;;;;;-1.01;51.67;102713.03;4836254;29;20048;-76
2024/01/10 14:23:37;;;;;;;25.73;9.85;;;;;;;-1.02;52.63;102706.00;4834295;29;20038;-76
2024/01/10 14:26:05;;;;;;;24.17;9.70;;;;;;;-1.00;52.07;102706.88;4837217;29;20409;-79
2024/01/10 14:28:31;;;;;;;25.52;9.77;;;;;;;-1.01;52.06;102698.09;4837074;29;20090;-75
2024/01/10 14:30:57;;;;;;;27.20;9.40;;;;;;;-1.00;52.31;102704.25;4855659;29;20092;-74
2024/01/10 14:33:22;;;;;;;27.05;10.10;;;;;;;-1.00;52.15;102709.53;4839274;29;20057;-75
2024/01/10 14:35:47;;;;;;;24.98;9.32;;;;;;;-1.02;51.89;102704.25;4835346;29;20157;-75
2024/01/10 14:38:13;;;;;;;26.50;10.23;;;;;;;-1.02;52.50;102700.72;4837216;29;20471;-75
2024/01/10 14:40:38;;;;;;;25.33;9.50;;;;;;;-1.02;52.13;102703.38;4836898;29;20033;-75
2024/01/10 14:43:03;;;;;;;27.65;10.30;;;;;;;-1.03;52.14;102698.97;4851441;29;20152;-75
2024/01/10 14:45:29;;;;;;;27.23;10.23;;;;;;;-1.06;51.67;102703.31;4838834;29;20140;-75
2024/01/10 14:47:54;;;;;;;26.80;10.63;;;;;;;-1.07;52.09;102698.03;4837138;29;20061;-75
2024/01/10 14:50:19;;;;;;;28.02;11.98;;;;;;;-1.07;52.79;102698.03;4837716;29;20161;-76
2024/01/10 14:52:45;;;;;;;27.52;11.23;;;;;;;-1.08;51.83;102698.94;4836726;29;20048;-75
2024/01/10 14:55:10;;;;;;;25.83;10.48;;;;;;;-1.09;52.18;102700.69;4836867;29;20452;-76
2024/01/10 14:57:36;;;;;;;25.48;10.32;;;;;;;-1.12;51.96;102699.78;4841184;29;20041;-75
2024/01/10 15:00:01;;;;;;;26.08;10.45;;;;;;;-1.14;52.34;102705.06;4841135;29;20038;-74
2024/01/10 15:02:27;;;;;;;27.02;11.30;;;;;;;-1.15;52.42;102711.19;4852217;29;20077;-77
2024/01/10 15:04:52;;;;;;;27.13;9.80;;;;;;;-1.17;52.48;102710.31;4838997;29;20102;-75
2024/01/10 15:07:17;;;;;;;27.50;11.00;;;;;;;-1.19;53.67;102709.41;4839251;29;20110;-76
2024/01/10 15:09:43;;;;;;;25.60;9.27;;;;;;;-1.20;53.19;102707.69;4836998;29;20077;-75
2024/01/10 15:12:10;;;;;;;24.33;9.93;;;;;;;-1.19;53.00;102708.53;4840103;29;20466;-75
2024/01/10 15:14:35;;;;;;;26.88;10.32;;;;;;;-1.19;53.99;102714.69;4853147;29;20041;-75
2024/01/10 15:17:05;;;;;;;25.05;10.27;;;;;;;-1.20;53.54;102712.94;4841713;29;20548;-75
2024/01/10 15:19:31;;;;;;;29.00;10.65;;;;;;;-1.21;54.38;102720.84;4839729;29;20036;-75
2024/01/10 15:21:58;;;;;;;26.10;10.95;;;;;;;-1.23;55.02;102723.47;4851891;29;20045;-75
2024/01/10 15:24:24;;;;;;;26.15;10.45;;;;;;;-1.24;54.89;102727.00;4843839;29;20037;-75
2024/01/10 15:26:52;;;;;;;26.50;10.68;;;;;;;-1.27;55.00;102713.78;4847571;29;20041;-76
2024/01/10 15:29:17;;;;;;;26.35;9.25;;;;;;;-1.27;54.58;102713.78;4851475;29;20062;-75
2024/01/10 15:31:43;;;;;;;28.15;10.73;;;;;;;-1.27;54.06;102721.69;4831553;29;20041;-77
2024/01/10 15:34:08;;;;;;;25.23;12.00;;;;;;;-1.29;54.68;102718.16;4836294;29;20038;-78
2024/01/10 15:36:34;;;;;;;25.50;9.95;;;;;;;-1.30;55.35;102722.56;4849264;29;20041;-78
2024/01/10 15:39:00;;;;;;;25.35;10.63;;;;;;;-1.32;55.90;102726.03;4835620;29;20038;-78
2024/01/10 15:41:25;;;;;;;28.60;10.98;;;;;;;-1.35;56.49;102723.41;4836035;29;20078;-77
2024/01/10 15:43:51;;;;;;;25.42;11.00;;;;;;;-1.38;57.18;102726.88;4838584;29;20031;-77
2024/01/10 15:46:22;;;;;;;24.85;10.45;;;;;;;-1.41;56.60;102725.13;4833403;29;20113;-77
2024/01/10 15:48:47;;;;;;;25.38;11.05;;;;;;;-1.42;55.88;102720.72;4849694;29;20029;-77
2024/01/10 15:51:13;;;;;;;27.33;10.63;;;;;;;-1.43;56.56;102729.50;4835783;29;20502;-77
2024/01/10 15:53:38;;;;;;;26.83;11.32;;;;;;;-1.47;56.62;102727.69;4834692;29;20044;-77
2024/01/10 15:56:05;;;;;;;25.45;10.32;;;;;;;-1.47;55.91;102729.47;4834003;29;20514;-77
2024/01/10 15:58:30;;;;;;;29.75;11.75;;;;;;;-1.46;56.16;102736.53;4832289;29;20022;-77
2024/01/10 16:00:55;;;;;;;25.95;11.18;;;;;;;-1.50;56.46;102726.81;4832964;29;20025;-77
2024/01/10 16:03:20;;;;;;;27.75;11.52;;;;;;;-1.52;55.79;102725.91;4834670;29;20034;-77
2024/01/10 16:05:48;;;;;;;27.65;11.52;;;;;;;-1.52;55.49;102733.81;4850969;29;20022;-76
2024/01/10 16:08:13;;;;;;;25.85;10.20;;;;;;;-1.52;55.36;102733.81;4849387;29;20046;-77
2024/01/10 16:10:39;;;;;;;35.85;12.75;;;;;;;-1.53;57.68;102732.06;4838669;29;20455;-77
2024/01/10 16:13:05;;;;;;;31.65;13.80;;;;;;;-1.56;56.15;102734.69;4838869;29;20030;-77
2024/01/10 16:15:30;;;;;;;27.02;11.75;;;;;;;-1.59;57.54;102730.25;4841814;29;20041;-77
2024/01/10 16:17:56;;;;;;;27.90;12.18;;;;;;;-1.62;57.11;102738.16;4837789;29;20053;-78
2024/01/10 16:20:21;;;;;;;30.45;12.40;;;;;;;-1.66;57.15;102733.72;4836327;29;20087;-78
2024/01/10 16:22:46;;;;;;;27.08;11.20;;;;;;;-1.68;57.95;102733.72;4837791;29;20120;-77
2024/01/10 16:25:11;;;;;;;28.20;12.68;;;;;;;-1.70;56.60;102742.47;4841672;29;20021;-77
2024/01/10 16:27:37;;;;;;;28.30;11.20;;;;;;;-1.70;56.59;102735.44;4838912;29;20038;-77
2024/01/10 16:30:03;;;;;;;29.25;11.48;;;;;;;-1.71;58.09;102738.06;4837882;29;20113;-77
2024/01/10 16:32:28;;;;;;;26.13;10.73;;;;;;;-1.71;57.47;102740.69;4838502;29;20042;-77
2024/01/10 16:34:54;;;;;;;26.52;11.88;;;;;;;-1.71;58.37;102746.88;4853229;29;20078;-78
2024/01/10 16:37:19;;;;;;;25.55;10.52;;;;;;;-1.73;57.94;102745.94;4837446;29;20129;-78
2024/01/10 16:39:45;;;;;;;27.85;10.57;;;;;;;-1.77;58.63;102758.25;4853154;29;20029;-76
2024/01/10 16:42:12;;;;;;;27.77;11.40;;;;;;;-1.78;57.84;102752.97;4843321;29;20041;-80
2024/01/10 16:44:39;;;;;;;30.23;11.23;;;;;;;-1.80;58.88;102752.94;4842542;29;20059;-74
2024/01/10 16:47:05;;;;;;;27.30;10.75;;;;;;;-1.79;58.47;102752.09;4842161;29;20033;-76
2024/01/10 16:49:30;;;;;;;27.00;10.80;;;;;;;-1.80;59.04;102763.47;4859004;29;20395;-76
2024/01/10 16:51:56;;;;;;;29.48;10.25;;;;;;;-1.81;58.79;102763.47;4843279;29;20033;-75
2024/01/10 16:54:21;;;;;;;26.38;10.32;;;;;;;-1.82;59.38;102759.94;4844270;29;20437;-78
2024/01/10 16:56:46;;;;;;;25.27;10.90;;;;;;;-1.83;59.13;102768.72;4844338;29;20034;-77
2024/01/10 16:59:12;;;;;;;23.75;9.65;;;;;;;-1.85;58.63;102778.34;4845235;29;20143;-77
2024/01/10 17:01:37;;;;;;;25.55;10.73;;;;;;;-1.88;57.93;102773.06;4838949;29;20036;-77
2024/01/10 17:04:03;;;;;;;27.70;11.82;;;;;;;-1.91;59.77;102773.03;4843020;29;20057;-75
2024/01/10 17:06:28;;;;;;;25.25;10.63;;;;;;;-1.94;59.15;102776.50;4843481;29;20109;-76
2024/01/10 17:08:54;;;;;;;25.00;10.98;;;;;;;-1.96;59.85;102772.13;4843032;29;20154;-75
2024/01/10 17:11:19;;;;;;;27.60;10.80;;;;;;;-1.97;59.13;102778.25;4843687;29;20042;-75
2024/01/10 17:13:44;;;;;;;29.13;11.82;;;;;;;-1.99;58.25;102778.25;4855410;29;20097;-78
2024/01/10 17:16:10;;;;;;;28.02;12.18;;;;;;;-1.99;58.92;102777.34;4858649;29;20042;-77
2024/01/10 17:18:35;;;;;;;24.75;10.02;;;;;;;-2.04;59.72;102777.28;4868706;29;20013;-80
2024/01/10 17:21:00;;;;;;;29.45;10.15;;;;;;;-2.05;60.14;102770.28;4861892;29;20045;-77
2024/01/10 17:23:26;;;;;;;28.73;11.52;;;;;;;-2.06;60.10;102772.91;4862732;29;20022;-77
2024/01/10 17:25:51;;;;;;;31.00;14.27;;;;;;;-2.09;60.91;102778.09;4848328;29;20038;-77
2024/01/10 17:28:16;;;;;;;26.98;12.02;;;;;;;-2.13;61.75;102779.84;4857681;29;20038;-78
2024/01/10 17:30:41;;;;;;;29.58;12.70;;;;;;;-2.13;61.55;102785.09;4844188;29;20227;-76
2024/01/10 17:33:10;;;;;;;31.00;14.27;;;;;;;-2.14;60.94;102797.41;4844465;29;20097;-78
2024/01/10 17:35:36;;;;;;;30.98;13.75;;;;;;;-2.13;61.34;102800.91;4841596;29;20034;-77
2024/01/10 17:38:01;;;;;;;32.85;14.85;;;;;;;-2.16;62.37;102799.13;4840814;29;20162;-77
2024/01/10 17:40:27;;;;;;;29.42;12.77;;;;;;;-2.17;61.37;102797.34;4839074;29;20524;-76
2024/01/10 17:42:52;;;;;;;35.13;16.02;;;;;;;-2.13;60.48;102793.88;4854620;29;20723;-80
2024/01/10 17:45:17;;;;;;;30.02;14.18;;;;;;;-2.13;60.32;102807.06;4842238;29;20462;-76
2024/01/10 17:47:43;;;;;;;26.50;12.25;;;;;;;-2.12;59.57;102802.69;4835789;29;20427;-76
2024/01/10 17:50:08;;;;;;;30.90;14.27;;;;;;;-2.18;61.16;102811.41;4841223;29;20075;-78
2024/01/10 17:52:34;;;;;;;26.48;11.95;;;;;;;-2.20;60.73;102813.13;4852367;29;20037;-79
2024/01/10 17:55:00;;;;;;;30.98;14.02;;;;;;;-2.23;62.21;102815.72;4855049;29;20034;-79
2024/01/10 17:57:26;;;;;;;33.17;12.98;;;;;;;-2.24;61.92;102813.06;4837704;29;20049;-79
2024/01/10 17:59:56;;;;;;;26.30;12.95;;;;;;;-2.27;63.00;102819.19;4834610;29;20038;-78
2024/01/10 18:02:21;;;;;;;28.35;12.48;;;;;;;-2.33;62.21;102827.00;4837626;29;20045;-79
2024/01/10 18:04:48;;;;;;;29.58;13.82;;;;;;;-2.36;62.81;102825.22;4836892;29;20034;-77
2024/01/10 18:07:14;;;;;;;27.60;13.02;;;;;;;-2.42;63.54;102834.81;4856663;29;20041;-77
2024/01/10 18:09:40;;;;;;;34.25;13.65;;;;;;;-2.42;62.50;102833.06;4838716;29;20030;-78
2024/01/10 18:12:06;;;;;;;31.77;14.02;;;;;;;-2.44;61.74;102832.16;4840238;29;20042;-74
2024/01/10 18:14:33;;;;;;;29.85;13.05;;;;;;;-2.44;64.25;102837.44;4853844;29;20042;-71
2024/01/10 18:16:58;;;;;;;32.53;13.77;;;;;;;-2.44;61.45;102836.56;4854676;29;20038;-77
2024/01/10 18:19:24;;;;;;;30.92;13.77;;;;;;;-2.42;62.03;102837.44;4839251;29;20029;-77
2024/01/10 18:21:49;;;;;;;28.05;12.15;;;;;;;-2.40;61.69;102839.25;4850978;29;20045;-79
2024/01/10 18:24:14;;;;;;;30.10;14.88;;;;;;;-2.42;62.65;102840.94;4841758;29;20061;-79
2024/01/10 18:26:41;;;;;;;31.85;12.55;;;;;;;-2.46;63.67;102845.31;4844495;29;20041;-76
2024/01/10 18:29:06;;;;;;;26.85;12.50;;;;;;;-2.49;64.03;102836.47;4841354;29;20026;-78
2024/01/10 18:31:32;;;;;;;29.90;13.95;;;;;;;-2.53;64.15;102848.72;4857205;29;20397;-76
2024/01/10 18:33:57;;;;;;;33.63;13.57;;;;;;;-2.58;64.35;102839.88;4842519;29;20066;-78
2024/01/10 18:36:22;;;;;;;30.95;15.15;;;;;;;-2.58;64.51;102847.75;4841141;29;20128;-82
2024/01/10 18:38:49;;;;;;;31.00;14.00;;;;;;;-2.60;64.25;102846.88;4840349;29;20034;-79
2024/01/10 18:41:14;;;;;;;33.40;15.13;;;;;;;-2.64;65.35;102839.78;4840978;29;20109;-78
2024/01/10 18:43:40;;;;;;;34.53;15.13;;;;;;;-2.66;65.21;102846.78;4843014;29;20562;-78
2024/01/10 18:46:06;;;;;;;30.20;13.32;;;;;;;-2.71;64.85;102852.00;4842026;29;20042;-78
2024/01/10 18:48:31;;;;;;;34.25;14.60;;;;;;;-2.75;66.02;102857.16;4839604;29;20029;-79
2024/01/10 18:50:57;;;;;;;30.30;13.98;;;;;;;-2.76;65.37;102847.53;4844714;29;20037;-78
2024/01/10 18:53:23;;;;;;;31.58;14.88;;;;;;;-2.79;65.69;102855.38;4843635;29;20038;-75
2024/01/10 18:55:48;;;;;;;31.90;14.27;;;;;;;-2.84;66.81;102853.56;4847074;29;20041;-78
2024/01/10 18:58:14;;;;;;;31.13;14.48;;;;;;;-2.87;66.33;102855.25;4851097;29;20030;-79
2024/01/10 19:00:41;;;;;;;30.15;14.00;;;;;;;-2.88;67.48;102858.75;4843233;29;20477;-72
2024/01/10 19:03:06;;;;;;;33.05;14.95;;;;;;;-2.89;67.29;102865.75;4848474;29;20045;-72
2024/01/10 19:05:32;;;;;;;31.73;14.25;;;;;;;-2.94;66.54;102862.16;4836197;29;20042;-72
2024/01/10 19:07:57;;;;;;;30.92;13.23;;;;;;;-2.94;67.30;102875.31;4837577;29;20406;-72
2024/01/10 19:10:23;;;;;;;32.65;14.52;;;;;;;-2.96;67.63;102878.78;4836620;29;20833;-72
2024/01/10 19:12:48;;;;;;;29.67;13.50;;;;;;;-3.00;67.97;102873.47;4834195;29;20072;-72
2024/01/10 19:15:14;;;;;;;29.30;13.98;;;;;;;-3.05;68.17;102871.63;4837899;29;20124;-71
2024/01/10 19:17:40;;;;;;;30.50;15.20;;;;;;;-3.06;68.00;102872.47;4836111;29;20732;-73
2024/01/10 19:20:06;;;;;;;28.88;14.23;;;;;;;-3.04;67.94;102876.03;4833349;29;20097;-72
2024/01/10 19:22:31;;;;;;;30.15;15.00;;;;;;;-3.07;68.48;102873.38;4836140;29;20025;-72
2024/01/10 19:24:57;;;;;;;28.38;12.80;;;;;;;-3.08;69.10;102875.09;4837660;29;20543;-72
2024/01/10 19:27:22;;;;;;;31.08;14.77;;;;;;;-3.11;68.86;102875.03;4839169;29;20038;-72
2024/01/10 19:29:47;;;;;;;30.40;13.65;;;;;;;-3.16;68.73;102874.97;4855155;29;20086;-72